Time;durP1;ratioP1;P1;durP2;ratioP2;P2;SDS_P1;SDS_P2;PMS_P1;PMS_P2;Temp;Humidity;BMP_temperature;BMP_pressure;BME280_temperature;BME280_humidity;BME280_pressure;Samples;Min_cycle;Max_cycle;Signal;HPM_P1;HPM_P2
2022/12/06 00:01:11;;;;;;;59.95;14.45;;;;;;;0.01;0.00;59042.03;5016378;28;20047;-57
2022/12/06 00:03:38;;;;;;;65.72;14.98;;;;;;;0.01;0.00;59042.03;5016925;28;20033;-58
2022/12/06 00:06:06;;;;;;;76.35;15.18;;;;;;;0.01;0.00;59042.03;5015094;28;20131;-56
2022/12/06 00:08:31;;;;;;;63.83;14.52;;;;;;;0.01;0.00;59042.03;5017768;28;20086;-55
2022/12/06 00:11:11;;;;;;;70.07;14.88;;;;;;;0.01;0.00;59042.03;5016335;28;20045;-55
2022/12/06 00:13:38;;;;;;;73.50;15.70;;;;;;;0.01;0.00;59042.03;5014767;28;20068;-57
2022/12/06 00:16:07;;;;;;;60.03;14.38;;;;;;;0.01;0.00;59042.03;5014917;28;20254;-55
2022/12/06 00:18:35;;;;;;;53.33;13.60;;;;;;;0.01;0.00;59042.03;5016804;28;20053;-56
2022/12/06 00:21:07;;;;;;;55.53;12.68;;;;;;;0.01;0.00;59042.03;5016938;28;20029;-56
2022/12/06 00:23:37;;;;;;;73.78;14.95;;;;;;;0.01;0.00;59042.03;5017842;28;20061;-57
2022/12/06 00:26:02;;;;;;;55.55;13.15;;;;;;;0.01;0.00;59042.03;5018314;28;20831;-58
2022/12/06 00:28:28;;;;;;;52.28;13.10;;;;;;;0.01;0.00;59042.03;5021211;28;20025;-58
2022/12/06 00:31:00;;;;;;;50.50;13.15;;;;;;;0.01;0.00;59042.03;5020446;28;20721;-56
2022/12/06 00:33:26;;;;;;;56.88;12.95;;;;;;;0.01;0.00;59042.03;5020358;28;20780;-55
2022/12/06 00:36:00;;;;;;;64.60;13.93;;;;;;;0.01;0.00;59042.03;5020808;28;20570;-55
2022/12/06 00:38:27;;;;;;;57.80;13.05;;;;;;;0.01;0.00;59042.03;5020362;28;20045;-55
2022/12/06 00:41:04;;;;;;;56.45;13.25;;;;;;;0.01;0.00;59042.03;5020182;28;20128;-56
2022/12/06 00:43:30;;;;;;;58.08;13.15;;;;;;;0.01;0.00;59042.03;5020938;28;20055;-55
2022/12/06 00:45:56;;;;;;;47.10;12.32;;;;;;;0.01;0.00;59042.03;5020686;28;20073;-55
2022/12/06 00:48:21;;;;;;;61.13;14.23;;;;;;;0.01;0.00;59042.03;5020378;28;20765;-55
2022/12/06 00:50:47;;;;;;;51.58;13.88;;;;;;;0.01;0.00;59042.03;5020399;28;20037;-58
2022/12/06 00:53:12;;;;;;;52.40;13.65;;;;;;;0.01;0.00;59042.03;5021189;28;20033;-56
2022/12/06 00:55:38;;;;;;;67.88;14.90;;;;;;;0.01;0.00;59042.03;5019971;28;20038;-55
2022/12/06 00:58:03;;;;;;;55.97;13.25;;;;;;;0.01;0.00;59042.03;5020541;28;20044;-56
2022/12/06 01:00:28;;;;;;;57.95;14.30;;;;;;;0.01;0.00;59042.03;5020497;28;20040;-57
2022/12/06 01:02:54;;;;;;;47.45;13.70;;;;;;;0.01;0.00;59042.03;5020168;28;20084;-57
2022/12/06 01:05:19;;;;;;;54.13;14.02;;;;;;;0.01;0.00;59042.03;5020580;28;20502;-56
2022/12/06 01:07:44;;;;;;;53.45;13.50;;;;;;;0.01;0.00;59042.03;5020354;28;20398;-55
2022/12/06 01:10:10;;;;;;;71.13;16.05;;;;;;;0.01;0.00;59042.03;5020545;28;20160;-55
2022/12/06 01:12:36;;;;;;;58.88;14.10;;;;;;;0.01;0.00;59042.03;5020684;28;20878;-56
2022/12/06 01:15:01;;;;;;;48.55;12.02;;;;;;;0.01;0.00;59042.03;5020179;28;20026;-56
2022/12/06 01:17:26;;;;;;;46.17;10.57;;;;;;;0.01;0.00;59042.03;5019984;28;20025;-55
2022/12/06 01:19:52;;;;;;;55.42;13.15;;;;;;;0.01;0.00;59042.03;5020039;28;20026;-55
2022/12/06 01:22:17;;;;;;;49.13;13.20;;;;;;;0.01;0.00;59042.03;5019945;28;20076;-55
2022/12/06 01:24:42;;;;;;;57.78;13.82;;;;;;;0.01;0.00;59042.03;5020278;28;20143;-56
2022/12/06 01:27:08;;;;;;;60.92;13.98;;;;;;;0.01;0.00;59042.03;5019538;28;20045;-55
2022/12/06 01:29:33;;;;;;;57.75;13.60;;;;;;;0.01;0.00;59042.03;5020622;28;20025;-55
2022/12/06 01:31:58;;;;;;;68.60;14.80;;;;;;;0.01;0.00;59042.03;5019353;28;20043;-55
2022/12/06 01:34:24;;;;;;;63.03;15.10;;;;;;;0.01;0.00;59042.03;5020059;28;20380;-57
2022/12/06 01:36:49;;;;;;;61.40;15.00;;;;;;;0.01;0.00;59042.03;5019874;28;20797;-55
2022/12/06 01:39:15;;;;;;;61.38;14.63;;;;;;;0.01;0.00;59042.03;5019070;28;20407;-57
2022/12/06 01:41:40;;;;;;;58.83;14.48;;;;;;;0.01;0.00;59042.03;5019328;28;20055;-57
2022/12/06 01:44:26;;;;;;;63.90;15.77;;;;;;;0.01;0.00;59042.03;5019603;28;20052;-55
2022/12/06 01:46:52;;;;;;;59.50;14.80;;;;;;;0.01;0.00;59042.03;5019050;28;20037;-54
2022/12/06 01:49:23;;;;;;;61.40;16.02;;;;;;;0.01;0.00;59042.03;5019355;28;20048;-56
2022/12/06 01:51:54;;;;;;;67.90;15.30;;;;;;;0.01;0.00;59042.03;5019274;28;20045;-57
2022/12/06 01:54:22;;;;;;;63.03;15.38;;;;;;;0.01;0.00;59042.03;5019597;28;20036;-56
2022/12/06 01:56:50;;;;;;;59.58;14.70;;;;;;;0.01;0.00;59042.03;5019465;28;20123;-57
2022/12/06 01:59:16;;;;;;;69.28;15.95;;;;;;;0.01;0.00;59042.03;5019695;28;20049;-54
2022/12/06 02:01:42;;;;;;;66.63;15.10;;;;;;;0.01;0.00;59042.03;5019250;28;20076;-57
2022/12/06 02:04:08;;;;;;;55.35;14.80;;;;;;;0.01;0.00;59042.03;5019801;28;20048;-55
2022/12/06 02:06:34;;;;;;;60.72;15.15;;;;;;;0.01;0.00;59042.03;5018887;28;20362;-57
2022/12/06 02:09:02;;;;;;;62.05;15.13;;;;;;;0.01;0.00;59042.03;5019347;28;20491;-55
2022/12/06 02:11:28;;;;;;;70.65;15.73;;;;;;;0.01;0.00;59042.03;5017650;28;20068;-55
2022/12/06 02:13:54;;;;;;;56.40;14.27;;;;;;;0.01;0.00;59042.03;5019173;28;20113;-55
2022/12/06 02:16:40;;;;;;;61.03;14.13;;;;;;;0.01;0.00;59042.03;5000799;28;20566;-56
2022/12/06 02:19:46;;;;;;;58.00;14.13;;;;;;;0.01;0.00;59042.03;5019437;28;20025;-57
2022/12/06 02:22:23;;;;;;;63.90;14.45;;;;;;;0.01;0.00;59042.03;5018580;28;20675;-55
2022/12/06 02:25:17;;;;;;;59.97;13.73;;;;;;;0.01;0.00;59042.03;5019362;28;20029;-56
2022/12/06 02:27:54;;;;;;;64.65;14.27;;;;;;;0.01;0.00;59042.03;5019136;28;20116;-55
2022/12/06 02:30:37;;;;;;;59.75;13.95;;;;;;;0.01;0.00;59042.03;5018329;28;20029;-57
2022/12/06 02:33:07;;;;;;;60.10;14.60;;;;;;;0.01;0.00;59042.03;5019232;28;20487;-56
2022/12/06 02:35:40;;;;;;;60.63;14.65;;;;;;;0.01;0.00;59042.03;5018866;28;20529;-57
2022/12/06 02:38:15;;;;;;;56.05;13.68;;;;;;;0.01;0.00;59042.03;5019355;28;20037;-55
2022/12/06 02:40:47;;;;;;;64.60;14.82;;;;;;;0.01;0.00;59042.03;5017591;28;20037;-55
2022/12/06 02:43:23;;;;;;;;;;;;;;;0.01;0.00;59042.03;5019701;28;20526;-55
2022/12/06 02:45:56;;;;;;;55.05;13.88;;;;;;;0.01;0.00;59042.03;5018124;28;19917;-56
2022/12/06 02:48:24;;;;;;;55.08;13.05;;;;;;;0.01;0.00;59042.03;5018068;28;20120;-56
2022/12/06 02:50:55;;;;;;;75.10;15.15;;;;;;;0.01;0.00;59042.03;5017886;28;20045;-57
2022/12/06 02:53:23;;;;;;;62.45;14.80;;;;;;;0.01;0.00;59042.03;5018670;28;20095;-55
2022/12/06 02:55:49;;;;;;;50.50;12.65;;;;;;;0.01;0.00;59042.03;5018055;28;20124;-55
2022/12/06 02:58:15;;;;;;;61.47;14.52;;;;;;;0.01;0.00;59042.03;5018716;28;20073;-57
2022/12/06 03:00:52;;;;;;;55.83;14.10;;;;;;;0.01;0.00;59042.03;5017593;28;20612;-56
2022/12/06 03:03:39;;;;;;;60.13;14.25;;;;;;;0.01;0.00;59042.03;5018318;28;20060;-58
2022/12/06 03:06:23;;;;;;;62.42;14.73;;;;;;;0.01;0.00;59042.03;5017124;28;20607;-55
2022/12/06 03:09:04;;;;;;;61.95;13.73;;;;;;;0.01;0.00;59042.03;5018315;28;20029;-55
2022/12/06 03:12:08;;;;;;;53.35;12.95;;;;;;;0.01;0.00;59042.03;5017832;28;20056;-55
2022/12/06 03:14:45;;;;;;;58.20;13.52;;;;;;;0.01;0.00;59042.03;5002174;28;20029;-55
2022/12/06 03:17:23;;;;;;;70.22;15.07;;;;;;;0.01;0.00;59042.03;5017075;28;20050;-55
2022/12/06 03:19:55;;;;;;;62.72;13.55;;;;;;;0.01;0.00;59042.03;5017863;28;20613;-56
2022/12/06 03:22:24;;;;;;;;;;;;;;;0.01;0.00;59042.03;5018212;28;20053;-55
2022/12/06 03:24:50;;;;;;;58.58;13.27;;;;;;;0.01;0.00;59042.03;5000300;28;19917;-55
2022/12/06 03:27:19;;;;;;;63.78;13.63;;;;;;;0.01;0.00;59042.03;5017837;28;20044;-55
2022/12/06 03:29:49;;;;;;;63.67;14.73;;;;;;;0.01;0.00;59042.03;5018148;28;20114;-54
2022/12/06 03:32:17;;;;;;;53.60;13.82;;;;;;;0.01;0.00;59042.03;5017295;28;20033;-55
2022/12/06 03:34:46;;;;;;;64.38;15.02;;;;;;;0.01;0.00;59042.03;5018149;28;20029;-54
2022/12/06 03:37:16;;;;;;;56.55;13.98;;;;;;;0.01;0.00;59042.03;5017781;28;20148;-55
2022/12/06 03:40:01;;;;;;;55.90;12.90;;;;;;;0.01;0.00;59042.03;5017927;28;20168;-55
2022/12/06 03:42:28;;;;;;;60.33;13.80;;;;;;;0.01;0.00;59042.03;5017038;28;20045;-57
2022/12/06 03:44:53;;;;;;;60.90;13.00;;;;;;;0.01;0.00;59042.03;5017778;28;20021;-55
2022/12/06 03:47:53;;;;;;;56.72;13.60;;;;;;;0.01;0.00;59042.03;4999897;28;20929;-55
2022/12/06 03:50:31;;;;;;;56.55;13.43;;;;;;;0.01;0.00;59042.03;5017710;28;20763;-54
2022/12/06 03:52:56;;;;;;;57.38;12.80;;;;;;;0.01;0.00;59042.03;5017794;28;20880;-56
2022/12/06 03:55:22;;;;;;;62.72;13.63;;;;;;;0.01;0.00;59042.03;5017366;28;20762;-56
2022/12/06 03:57:47;;;;;;;74.45;14.80;;;;;;;0.01;0.00;59042.03;5018087;28;20512;-55
2022/12/06 04:00:13;;;;;;;60.97;13.32;;;;;;;0.01;0.00;59042.03;5017623;28;20021;-55
2022/12/06 04:02:38;;;;;;;65.70;15.07;;;;;;;0.01;0.00;59042.03;5020778;28;20454;-55
2022/12/06 04:05:04;;;;;;;55.38;13.48;;;;;;;0.01;0.00;59042.03;5022418;28;20530;-54
2022/12/06 04:07:30;;;;;;;57.28;13.57;;;;;;;0.01;0.00;59042.03;5021530;28;20041;-55
2022/12/06 04:10:01;;;;;;;66.32;16.55;;;;;;;0.01;0.00;59042.03;5021780;28;20048;-55
2022/12/06 04:15:11;;;;;;;71.43;16.13;;;;;;;0.01;0.00;59042.03;5021004;28;20479;-55
2022/12/06 04:20:23;;;;;;;56.38;13.90;;;;;;;0.01;0.00;59042.03;5021601;28;20035;-55
2022/12/06 04:23:04;;;;;;;58.03;14.15;;;;;;;0.01;0.00;59042.03;5021182;28;20037;-56
2022/12/06 04:25:34;;;;;;;64.15;14.73;;;;;;;0.01;0.00;59042.03;5020842;28;20406;-54
2022/12/06 04:38:56;;;;;;;60.47;13.68;;;;;;;0.01;0.00;59042.03;5021427;28;20086;-55
2022/12/06 04:44:06;;;;;;;43.78;11.65;;;;;;;0.01;0.00;59042.03;5021247;28;20411;-55
2022/12/06 04:46:32;;;;;;;61.30;13.23;;;;;;;0.01;0.00;59042.03;5020264;28;20029;-55
2022/12/06 04:48:57;;;;;;;60.90;13.90;;;;;;;0.01;0.00;59042.03;5021107;28;20091;-55
2022/12/06 04:51:23;;;;;;;56.08;13.20;;;;;;;0.01;0.00;59042.03;5019934;28;20132;-54
2022/12/06 04:53:49;;;;;;;56.13;12.52;;;;;;;0.01;0.00;59042.03;5021188;28;20136;-55
2022/12/06 04:56:14;;;;;;;56.50;12.70;;;;;;;0.01;0.00;59042.03;5019933;28;20032;-54
2022/12/06 04:58:40;;;;;;;56.95;13.77;;;;;;;0.01;0.00;59042.03;5020971;28;20064;-55
2022/12/06 05:01:05;;;;;;;47.47;12.23;;;;;;;0.01;0.00;59042.03;5019591;28;20379;-55
2022/12/06 05:03:30;;;;;;;59.88;13.27;;;;;;;0.01;0.00;59042.03;5020648;28;20040;-56
2022/12/06 05:05:56;;;;;;;46.05;11.50;;;;;;;0.01;0.00;59042.03;5020432;28;20029;-54
2022/12/06 05:08:21;;;;;;;47.70;11.07;;;;;;;0.01;0.00;59042.03;5020694;28;20056;-54
2022/12/06 05:10:48;;;;;;;59.13;12.30;;;;;;;0.01;0.00;59042.03;5019744;28;20144;-54
2022/12/06 05:13:15;;;;;;;50.60;11.43;;;;;;;0.01;0.00;59042.03;5020687;28;20888;-57
2022/12/06 05:15:52;;;;;;;53.67;12.18;;;;;;;0.01;0.00;59042.03;5019312;28;20038;-54
2022/12/06 05:18:17;;;;;;;49.30;11.85;;;;;;;0.01;0.00;59042.03;5020334;28;20044;-57
2022/12/06 05:20:43;;;;;;;60.17;12.60;;;;;;;0.01;0.00;59042.03;5019696;28;20029;-55
2022/12/06 05:23:08;;;;;;;40.78;11.02;;;;;;;0.01;0.00;59042.03;5020372;28;20384;-56
2022/12/06 05:25:34;;;;;;;48.83;11.38;;;;;;;0.01;0.00;59042.03;5019761;28;20052;-56
2022/12/06 05:27:59;;;;;;;43.65;11.07;;;;;;;0.01;0.00;59042.03;5019730;28;20499;-55
2022/12/06 05:30:24;;;;;;;51.00;12.45;;;;;;;0.01;0.00;59042.03;5019928;28;20243;-55
2022/12/06 05:32:50;;;;;;;53.70;12.35;;;;;;;0.01;0.00;59042.03;5019975;28;20063;-55
2022/12/06 05:35:15;;;;;;;43.78;11.68;;;;;;;0.01;0.00;59042.03;5020108;28;20082;-55
2022/12/06 05:37:40;;;;;;;48.00;12.73;;;;;;;0.01;0.00;59042.03;5020396;28;20029;-55
2022/12/06 05:40:06;;;;;;;42.03;11.88;;;;;;;0.01;0.00;59042.03;5019683;28;20021;-56
2022/12/06 05:42:32;;;;;;;48.38;12.35;;;;;;;0.01;0.00;59042.03;5020137;28;20032;-54
2022/12/06 05:44:57;;;;;;;54.97;13.25;;;;;;;0.01;0.00;59042.03;5019965;28;20017;-55
2022/12/06 05:47:22;;;;;;;46.75;12.57;;;;;;;0.01;0.00;59042.03;5019689;28;20033;-55
2022/12/06 05:49:48;;;;;;;41.92;11.70;;;;;;;0.01;0.00;59042.03;5020313;28;20078;-55
2022/12/06 05:52:13;;;;;;;41.75;12.38;;;;;;;0.01;0.00;59042.03;5018845;28;20042;-56
2022/12/06 05:54:38;;;;;;;37.60;10.30;;;;;;;0.01;0.00;59042.03;5019806;28;20583;-57
2022/12/06 05:57:04;;;;;;;42.08;10.75;;;;;;;0.01;0.00;59042.03;5019445;28;20254;-56
2022/12/06 05:59:29;;;;;;;44.17;11.63;;;;;;;0.01;0.00;59042.03;5020041;28;20036;-55
2022/12/06 06:01:54;;;;;;;48.38;12.77;;;;;;;0.01;0.00;59042.03;5019156;28;20136;-56
2022/12/06 06:04:20;;;;;;;49.03;12.50;;;;;;;0.01;0.00;59042.03;5019812;28;20083;-56
2022/12/06 06:06:45;;;;;;;49.05;12.18;;;;;;;0.01;0.00;59042.03;5019098;28;20033;-55
2022/12/06 06:09:10;;;;;;;44.63;11.63;;;;;;;0.01;0.00;59042.03;5019482;28;20029;-56
2022/12/06 06:11:36;;;;;;;45.88;11.57;;;;;;;0.01;0.00;59042.03;5018986;28;20043;-55
2022/12/06 06:14:01;;;;;;;47.55;11.88;;;;;;;0.01;0.00;59042.03;5019172;28;20034;-55
2022/12/06 06:16:27;;;;;;;72.35;15.30;;;;;;;0.01;0.00;59042.03;5018785;28;20693;-56
2022/12/06 06:18:52;;;;;;;58.72;14.38;;;;;;;0.01;0.00;59042.03;5019729;28;20571;-55
2022/12/06 06:21:17;;;;;;;51.58;13.27;;;;;;;0.01;0.00;59042.03;5018203;28;20787;-57
2022/12/06 06:23:43;;;;;;;45.20;12.23;;;;;;;0.01;0.00;59042.03;5018291;28;20040;-56
2022/12/06 06:26:10;;;;;;;42.92;11.88;;;;;;;0.01;0.00;59042.03;5018778;28;20048;-58
2022/12/06 06:28:36;;;;;;;58.90;13.23;;;;;;;0.01;0.00;59042.03;5018706;28;20029;-57
2022/12/06 06:31:03;;;;;;;42.20;11.85;;;;;;;0.01;0.00;59042.03;5018406;28;20042;-57
2022/12/06 06:33:28;;;;;;;49.17;12.82;;;;;;;0.01;0.00;59042.03;5018587;28;20618;-56
2022/12/06 06:35:54;;;;;;;46.58;12.18;;;;;;;0.01;0.00;59042.03;5018695;28;20680;-55
2022/12/06 06:38:19;;;;;;;40.22;12.25;;;;;;;0.01;0.00;59042.03;5019275;28;20033;-55
2022/12/06 06:40:45;;;;;;;58.08;12.98;;;;;;;0.01;0.00;59042.03;5017731;28;20072;-55
2022/12/06 06:43:19;;;;;;;38.78;10.95;;;;;;;0.01;0.00;59042.03;5018564;28;20150;-55
2022/12/06 06:45:50;;;;;;;54.85;13.35;;;;;;;0.01;0.00;59042.03;5017231;28;20025;-56
2022/12/06 06:48:16;;;;;;;45.70;11.85;;;;;;;0.01;0.00;59042.03;5018339;28;20131;-57
2022/12/06 06:50:41;;;;;;;58.95;13.70;;;;;;;0.01;0.00;59042.03;5017462;28;20084;-55
2022/12/06 06:53:06;;;;;;;45.42;11.48;;;;;;;0.01;0.00;59042.03;5018750;28;20057;-55
2022/12/06 06:55:34;;;;;;;56.42;14.07;;;;;;;0.01;0.00;59042.03;5018183;28;20034;-55
2022/12/06 06:57:59;;;;;;;56.50;14.20;;;;;;;0.01;0.00;59042.03;5018509;28;20022;-55
2022/12/06 07:00:25;;;;;;;50.45;12.38;;;;;;;0.01;0.00;59042.03;5018007;28;20060;-55
2022/12/06 07:02:51;;;;;;;57.70;12.75;;;;;;;0.01;0.00;59042.03;5017757;28;20035;-56
2022/12/06 07:05:16;;;;;;;45.60;12.15;;;;;;;0.01;0.00;59042.03;5018224;28;20030;-55
2022/12/06 07:07:41;;;;;;;43.97;10.77;;;;;;;0.01;0.00;59042.03;5018692;28;20021;-55
2022/12/06 07:10:07;;;;;;;52.10;12.50;;;;;;;0.01;0.00;59042.03;5017465;28;20716;-55
2022/12/06 07:12:32;;;;;;;44.25;11.82;;;;;;;0.01;0.00;59042.03;5017924;28;20108;-56
2022/12/06 07:14:58;;;;;;;53.88;13.05;;;;;;;0.01;0.00;59042.03;5017888;28;20026;-56
2022/12/06 07:17:23;;;;;;;45.15;11.15;;;;;;;0.01;0.00;59042.03;5017851;28;20040;-57
2022/12/06 07:19:49;;;;;;;51.95;12.02;;;;;;;0.01;0.00;59042.03;5018538;28;20037;-55
2022/12/06 07:22:14;;;;;;;53.65;12.40;;;;;;;0.01;0.00;59042.03;5017179;28;20100;-55
2022/12/06 07:24:39;;;;;;;50.03;12.55;;;;;;;0.01;0.00;59042.03;5017988;28;20029;-56
2022/12/06 07:27:05;;;;;;;46.65;12.02;;;;;;;0.01;0.00;59042.03;5017603;28;20385;-55
2022/12/06 07:29:30;;;;;;;46.17;11.88;;;;;;;0.01;0.00;59042.03;5018144;28;20040;-55
2022/12/06 07:31:55;;;;;;;31.20;8.23;;;;;;;0.01;0.00;59042.03;5017351;28;20095;-56
2022/12/06 07:34:22;;;;;;;47.10;12.60;;;;;;;0.01;0.00;59042.03;5016627;28;20080;-55
2022/12/06 07:36:48;;;;;;;43.63;11.20;;;;;;;0.01;0.00;59042.03;5016982;28;20064;-56
2022/12/06 07:39:13;;;;;;;42.92;11.95;;;;;;;0.01;0.00;59042.03;5018107;28;20083;-56
2022/12/06 07:47:23;;;;;;;45.15;12.50;;;;;;;0.01;0.00;59042.03;4936571;29;20043;-56
2022/12/06 07:49:52;;;;;;;38.67;10.98;;;;;;;0.01;0.00;59042.03;5000484;28;20056;-55
2022/12/06 07:52:19;;;;;;;40.53;10.70;;;;;;;0.01;0.00;59042.03;5017068;28;20059;-55
2022/12/06 07:54:45;;;;;;;49.60;12.98;;;;;;;0.01;0.00;59042.03;5017410;28;20036;-55
2022/12/06 07:57:10;;;;;;;40.33;10.98;;;;;;;0.01;0.00;59042.03;5017213;28;20041;-55
2022/12/06 07:59:35;;;;;;;54.88;13.73;;;;;;;0.01;0.00;59042.03;5017488;28;20022;-55
2022/12/06 08:02:01;;;;;;;33.53;8.77;;;;;;;0.01;0.00;59042.03;5017254;28;20137;-55
2022/12/06 08:04:26;;;;;;;51.97;13.30;;;;;;;0.01;0.00;59042.03;5017734;28;20022;-57
2022/12/06 08:06:53;;;;;;;44.03;12.55;;;;;;;0.01;0.00;59042.03;5017301;28;20111;-55
2022/12/06 08:09:18;;;;;;;30.50;8.15;;;;;;;0.01;0.00;59042.03;5018154;28;20029;-56
2022/12/06 08:11:44;;;;;;;44.30;12.80;;;;;;;0.01;0.00;59042.03;5017211;28;20154;-55
2022/12/06 08:14:10;;;;;;;40.13;9.52;;;;;;;0.01;0.00;59042.03;5018293;28;20033;-57
2022/12/06 08:16:35;;;;;;;44.13;11.40;;;;;;;0.01;0.00;59042.03;5017457;28;20053;-56
2022/12/06 08:19:01;;;;;;;36.63;9.60;;;;;;;0.01;0.00;59042.03;5017119;28;20030;-55
2022/12/06 08:21:26;;;;;;;50.40;13.18;;;;;;;0.01;0.00;59042.03;5017289;28;20049;-57
2022/12/06 08:23:53;;;;;;;51.13;13.05;;;;;;;0.01;0.00;59042.03;5017300;28;20033;-55
2022/12/06 08:26:19;;;;;;;37.88;10.82;;;;;;;0.01;0.00;59042.03;5017318;28;20041;-55
2022/12/06 08:28:45;;;;;;;44.00;12.30;;;;;;;0.01;0.00;59042.03;5017832;28;20506;-55
2022/12/06 08:31:24;;;;;;;45.42;11.35;;;;;;;0.01;0.00;59042.03;5016585;28;20033;-55
2022/12/06 08:33:49;;;;;;;37.58;8.88;;;;;;;0.01;0.00;59042.03;5016595;28;20572;-54
2022/12/06 08:36:17;;;;;;;38.47;10.60;;;;;;;0.01;0.00;59042.03;5016680;28;20033;-55
2022/12/06 08:38:43;;;;;;;56.53;14.50;;;;;;;0.01;0.00;59042.03;5016314;28;20022;-58
2022/12/06 08:41:54;;;;;;;48.53;13.60;;;;;;;0.01;0.00;59042.03;5016213;28;20048;-55
2022/12/06 08:43:56;;;;;;;53.70;12.50;;;;;;;0.01;0.00;59042.03;5016226;28;20037;-57
2022/12/06 08:46:22;;;;;;;36.00;11.55;;;;;;;0.01;0.00;59042.03;5016412;28;20045;-54
2022/12/06 08:48:47;;;;;;;49.35;12.82;;;;;;;0.01;0.00;59042.03;5020550;28;20033;-56
2022/12/06 08:51:13;;;;;;;52.15;12.98;;;;;;;0.01;0.00;59042.03;5020012;28;20415;-56
2022/12/06 08:53:38;;;;;;;43.35;13.88;;;;;;;0.01;0.00;59042.03;5020570;28;20031;-55
2022/12/06 08:56:04;;;;;;;46.05;12.02;;;;;;;0.01;0.00;59042.03;5020272;28;20033;-55
2022/12/06 08:58:29;;;;;;;47.95;13.32;;;;;;;0.01;0.00;59042.03;5020521;28;20091;-57
2022/12/06 09:00:55;;;;;;;43.00;12.57;;;;;;;0.01;0.00;59042.03;5019661;28;20044;-56
2022/12/06 09:03:20;;;;;;;41.70;10.75;;;;;;;0.01;0.00;59042.03;5020385;28;20038;-55
2022/12/06 09:05:46;;;;;;;48.50;12.10;;;;;;;0.01;0.00;59042.03;5019649;28;20033;-56
2022/12/06 09:08:11;;;;;;;38.17;11.23;;;;;;;0.01;0.00;59042.03;5020717;28;20037;-56
2022/12/06 09:10:37;;;;;;;48.00;11.52;;;;;;;0.01;0.00;59042.03;5019242;28;20128;-55
2022/12/06 09:13:02;;;;;;;41.70;11.85;;;;;;;0.01;0.00;59042.03;5020435;28;20430;-55
2022/12/06 09:15:27;;;;;;;37.63;12.25;;;;;;;0.01;0.00;59042.03;5020500;28;20260;-55
2022/12/06 09:17:53;;;;;;;41.10;12.70;;;;;;;0.01;0.00;59042.03;5019894;28;20093;-55
2022/12/06 09:20:18;;;;;;;44.63;12.40;;;;;;;0.01;0.00;59042.03;5019668;28;20155;-55
2022/12/06 09:22:44;;;;;;;47.33;13.65;;;;;;;0.01;0.00;59042.03;5020176;28;20083;-57
2022/12/06 09:25:10;;;;;;;62.55;14.25;;;;;;;0.01;0.00;59042.03;5019322;28;20083;-57
2022/12/06 09:27:36;;;;;;;52.97;14.18;;;;;;;0.01;0.00;59042.03;5020341;28;20032;-55
2022/12/06 09:30:01;;;;;;;51.85;15.02;;;;;;;0.01;0.00;59042.03;5020000;28;20083;-55
2022/12/06 09:32:27;;;;;;;53.13;13.40;;;;;;;0.01;0.00;59042.03;5018855;28;20552;-56
2022/12/06 09:34:52;;;;;;;48.92;13.25;;;;;;;0.01;0.00;59042.03;5019983;28;20025;-56
2022/12/06 09:37:18;;;;;;;46.17;11.55;;;;;;;0.01;0.00;59042.03;5019218;28;20042;-56
2022/12/06 09:39:48;;;;;;;51.55;14.30;;;;;;;0.01;0.00;59042.03;5020448;28;20035;-56
2022/12/06 09:42:17;;;;;;;51.65;14.10;;;;;;;0.01;0.00;59042.03;5018819;28;20041;-56
2022/12/06 09:44:51;;;;;;;50.33;14.20;;;;;;;0.01;0.00;59042.03;5019944;28;20056;-57
2022/12/06 09:47:38;;;;;;;49.63;13.65;;;;;;;0.01;0.00;59042.03;5018263;28;20068;-55
2022/12/06 09:50:09;;;;;;;57.42;14.57;;;;;;;0.01;0.00;59042.03;5019332;28;20028;-57
2022/12/06 09:52:39;;;;;;;58.15;14.80;;;;;;;0.01;0.00;59042.03;5019345;28;20119;-57
2022/12/06 09:55:17;;;;;;;49.72;13.27;;;;;;;0.01;0.00;59042.03;5019607;28;20045;-55
2022/12/06 09:57:42;;;;;;;54.47;13.75;;;;;;;0.01;0.00;59042.03;5018716;28;20458;-56
2022/12/06 10:00:12;;;;;;;44.17;12.52;;;;;;;0.01;0.00;59042.03;5018182;28;20503;-56
2022/12/06 10:03:23;;;;;;;48.95;12.55;;;;;;;0.01;0.00;59042.03;5018859;28;20639;-57
2022/12/06 10:05:54;;;;;;;62.13;14.43;;;;;;;0.01;0.00;59042.03;5002336;28;20034;-56
2022/12/06 10:08:49;;;;;;;51.65;14.23;;;;;;;0.01;0.00;59042.03;5020233;28;20035;-56
2022/12/06 10:12:00;;;;;;;47.05;13.32;;;;;;;0.01;0.00;59042.03;5018779;28;20598;-57
2022/12/06 10:14:37;;;;;;;41.55;11.43;;;;;;;0.01;0.00;59042.03;5016871;28;20044;-58
2022/12/06 10:17:25;;;;;;;34.05;7.93;;;;;;;0.01;0.00;59042.03;5018854;28;20041;-58
2022/12/06 10:20:31;;;;;;;53.15;12.18;;;;;;;0.01;0.00;59042.03;5019038;28;20041;-56
2022/12/06 10:22:57;;;;;;;45.33;12.73;;;;;;;0.01;0.00;59042.03;5017596;28;20049;-57
2022/12/06 10:25:30;;;;;;;34.05;7.85;;;;;;;0.01;0.00;59042.03;5018673;28;20029;-57
2022/12/06 10:27:55;;;;;;;52.95;11.75;;;;;;;0.01;0.00;59042.03;5018300;28;20998;-57
2022/12/06 10:30:21;;;;;;;47.72;11.73;;;;;;;0.01;0.00;59042.03;5019042;28;20117;-54
2022/12/06 10:33:04;;;;;;;28.25;7.72;;;;;;;0.01;0.00;59042.03;5018936;28;20013;-56
2022/12/06 10:35:47;;;;;;;36.38;9.20;;;;;;;0.01;0.00;59042.03;5018538;28;20491;-55
2022/12/06 10:38:21;;;;;;;42.38;10.00;;;;;;;0.01;0.00;59042.03;5016663;28;20930;-55
2022/12/06 10:41:17;;;;;;;38.90;8.60;;;;;;;0.01;0.00;59042.03;5018277;28;20072;-55
2022/12/06 10:43:51;;;;;;;40.20;9.88;;;;;;;0.01;0.00;59042.03;5018717;28;20064;-55
2022/12/06 10:49:26;;;;;;;43.03;10.15;;;;;;;0.01;0.00;59042.03;5018991;28;20037;-60
2022/12/06 10:52:03;;;;;;;37.22;8.75;;;;;;;0.01;0.00;59042.03;5018027;28;20047;-55
2022/12/06 10:54:37;;;;;;;33.88;8.80;;;;;;;0.01;0.00;59042.03;5018312;28;20830;-55
2022/12/06 10:57:10;;;;;;;36.00;8.32;;;;;;;0.01;0.00;59042.03;5018193;28;20045;-56
2022/12/06 10:59:41;;;;;;;36.80;8.40;;;;;;;0.01;0.00;59042.03;5018410;28;20141;-56
2022/12/06 11:02:34;;;;;;;35.47;8.98;;;;;;;0.01;0.00;59042.03;5017682;28;20021;-57
2022/12/06 11:05:03;;;;;;;30.02;7.28;;;;;;;0.01;0.00;59042.03;5018765;28;20033;-56
2022/12/06 11:07:42;;;;;;;38.30;8.95;;;;;;;0.01;0.00;59042.03;5017602;28;20033;-57
2022/12/06 11:10:22;;;;;;;25.33;5.72;;;;;;;0.01;0.00;59042.03;5017788;28;20226;-57
2022/12/06 11:12:55;;;;;;;34.72;7.78;;;;;;;0.01;0.00;59042.03;5017683;28;20029;-56
2022/12/06 11:15:33;;;;;;;38.63;8.70;;;;;;;0.01;0.00;59042.03;5018028;28;20086;-57
2022/12/06 11:18:09;;;;;;;34.35;7.85;;;;;;;0.01;0.00;59042.03;5018422;28;20037;-57
2022/12/06 11:20:45;;;;;;;40.05;8.65;;;;;;;0.01;0.00;59042.03;5016831;28;20037;-59
2022/12/06 11:23:29;;;;;;;34.72;7.90;;;;;;;0.01;0.00;59042.03;5018682;28;20033;-56
2022/12/06 11:26:17;;;;;;;36.28;7.18;;;;;;;0.01;0.00;59042.03;5016709;28;20040;-57
2022/12/06 11:28:50;;;;;;;34.75;7.45;;;;;;;0.01;0.00;59042.03;5018006;28;20734;-56
2022/12/06 11:31:29;;;;;;;35.88;8.23;;;;;;;0.01;0.00;59042.03;5017372;28;20608;-56
2022/12/06 11:33:56;;;;;;;36.03;7.93;;;;;;;0.01;0.00;59042.03;5017730;28;20032;-56
2022/12/06 11:36:24;;;;;;;33.95;7.55;;;;;;;0.01;0.00;59042.03;5017584;28;20045;-56
2022/12/06 11:38:49;;;;;;;45.85;8.07;;;;;;;0.01;0.00;59042.03;5017893;28;20060;-56
2022/12/06 11:41:25;;;;;;;37.53;7.72;;;;;;;0.01;0.00;59042.03;5016758;28;20049;-55
2022/12/06 11:43:52;;;;;;;36.95;7.03;;;;;;;0.01;0.00;59042.03;5017584;28;20025;-56
2022/12/06 11:46:19;;;;;;;29.67;6.82;;;;;;;0.01;0.00;59042.03;5017767;28;20073;-57
2022/12/06 11:48:45;;;;;;;32.63;7.43;;;;;;;0.01;0.00;59042.03;5017829;28;20080;-56
2022/12/06 11:51:17;;;;;;;34.85;7.20;;;;;;;0.01;0.00;59042.03;5017096;28;20511;-57
2022/12/06 11:53:56;;;;;;;27.02;6.72;;;;;;;0.01;0.00;59042.03;5018023;28;20037;-57
2022/12/06 11:56:25;;;;;;;24.35;5.78;;;;;;;0.01;0.00;59042.03;5017241;28;20042;-57
2022/12/06 11:59:09;;;;;;;33.70;7.15;;;;;;;0.01;0.00;59042.03;5017918;28;20120;-56
2022/12/06 12:01:47;;;;;;;27.30;5.75;;;;;;;0.01;0.00;59042.03;5017426;28;20102;-59
2022/12/06 12:04:40;;;;;;;40.28;7.40;;;;;;;0.01;0.00;59042.03;5016834;28;20034;-56
2022/12/06 12:07:08;;;;;;;31.40;5.60;;;;;;;0.01;0.00;59042.03;5016812;28;20407;-59
2022/12/06 12:09:44;;;;;;;29.13;6.20;;;;;;;0.01;0.00;59042.03;5017939;28;20476;-57
2022/12/06 12:13:42;;;;;;;85.05;8.45;;;;;;;0.01;0.00;59042.03;5016940;28;20072;-57
2022/12/06 12:15:17;;;;;;;35.58;6.65;;;;;;;0.01;0.00;59042.03;5016530;28;20033;-56
2022/12/06 12:17:46;;;;;;;40.42;6.90;;;;;;;0.01;0.00;59042.03;5017804;28;20573;-56